createdAt,value
2018-03-17T00:00:20.450Z,0
2018-03-17T00:00:46.555Z,0
2018-03-17T00:01:12.663Z,0
2018-03-17T00:01:38.769Z,0
2018-03-17T00:02:04.872Z,0
2018-03-17T00:02:30.994Z,0
2018-03-17T00:02:57.095Z,0
2018-03-17T00:03:23.199Z,0
2018-03-17T00:03:49.302Z,0
2018-03-17T00:04:15.408Z,0
2018-03-17T00:04:41.510Z,0
2018-03-17T00:05:07.632Z,0
2018-03-17T00:05:33.736Z,0
2018-03-17T00:05:59.860Z,0
2018-03-17T00:06:25.963Z,0
2018-03-17T00:06:52.086Z,0
2018-03-17T00:07:18.200Z,0
2018-03-17T00:07:44.295Z,0
2018-03-17T00:08:10.435Z,0
2018-03-17T00:08:36.540Z,0
2018-03-17T00:09:02.648Z,0
2018-03-17T00:09:28.755Z,0
2018-03-17T00:09:54.872Z,0
2018-03-17T00:10:20.977Z,0
2018-03-17T00:10:47.082Z,0
2018-03-17T00:11:13.186Z,0
2018-03-17T00:11:39.290Z,0
2018-03-17T00:12:05.395Z,0
2018-03-17T00:12:31.499Z,0
2018-03-17T00:12:57.604Z,0
2018-03-17T00:13:23.706Z,0
2018-03-17T00:13:49.810Z,0
2018-03-17T00:14:15.909Z,0
2018-03-17T00:14:42.013Z,0
2018-03-17T00:15:08.119Z,0
2018-03-17T00:15:34.221Z,0
2018-03-17T00:16:00.327Z,0
2018-03-17T00:16:26.433Z,0
2018-03-17T00:16:52.572Z,0
2018-03-17T00:17:18.674Z,0
2018-03-17T00:17:44.795Z,0
2018-03-17T00:18:10.898Z,0
2018-03-17T00:18:37.001Z,0
2018-03-17T00:19:03.123Z,0
2018-03-17T00:19:29.225Z,0
2018-03-17T00:19:55.347Z,0
2018-03-17T00:20:21.451Z,0
2018-03-17T00:20:47.552Z,0
2018-03-17T00:21:13.654Z,0
2018-03-17T00:21:39.756Z,0
2018-03-17T00:22:05.864Z,0
2018-03-17T00:22:31.965Z,0
2018-03-17T00:22:58.070Z,0
2018-03-17T00:23:24.173Z,0
2018-03-17T00:23:50.275Z,0
2018-03-17T00:24:16.378Z,0
2018-03-17T00:24:42.508Z,0
2018-03-17T00:25:08.589Z,0
2018-03-17T00:25:34.688Z,0
2018-03-17T00:26:00.795Z,0
2018-03-17T00:26:26.894Z,0
2018-03-17T00:26:52.997Z,0
2018-03-17T00:27:19.102Z,0
2018-03-17T00:27:45.206Z,0
2018-03-17T00:28:11.311Z,0
2018-03-17T00:28:37.415Z,0
2018-03-17T00:29:03.518Z,0
2018-03-17T00:29:29.623Z,0
2018-03-17T00:29:55.726Z,0
2018-03-17T00:30:21.831Z,0
2018-03-17T00:30:47.936Z,0
2018-03-17T00:31:14.040Z,0
2018-03-17T00:31:40.145Z,0
2018-03-17T00:32:06.250Z,0
2018-03-17T00:32:32.355Z,0
2018-03-17T00:32:58.460Z,0
2018-03-17T00:33:24.565Z,0
2018-03-17T00:33:50.683Z,0
2018-03-17T00:34:16.787Z,0
2018-03-17T00:34:42.890Z,0
2018-03-17T00:35:08.992Z,0
2018-03-17T00:35:35.097Z,0
2018-03-17T00:36:01.201Z,0
2018-03-17T00:36:27.304Z,0
2018-03-17T00:36:53.404Z,0
2018-03-17T00:37:19.513Z,0
2018-03-17T00:37:45.611Z,0
2018-03-17T00:38:11.715Z,0
2018-03-17T00:38:37.820Z,0
2018-03-17T00:39:03.940Z,0
2018-03-17T00:39:30.045Z,0
2018-03-17T00:39:56.150Z,0
2018-03-17T00:40:22.252Z,0
2018-03-17T00:40:48.364Z,0
2018-03-17T00:41:14.478Z,0
2018-03-17T00:41:40.583Z,0
2018-03-17T00:42:06.707Z,0
2018-03-17T00:42:32.812Z,0
2018-03-17T00:42:58.931Z,0
2018-03-17T00:43:25.047Z,0
2018-03-17T00:43:51.195Z,0
2018-03-17T00:44:17.306Z,0
2018-03-17T00:44:43.421Z,0
2018-03-17T00:45:09.533Z,0
2018-03-17T00:45:35.669Z,0
2018-03-17T00:46:01.785Z,0
2018-03-17T00:46:27.924Z,0
2018-03-17T00:46:54.064Z,0
2018-03-17T00:47:20.183Z,0
2018-03-17T00:47:46.299Z,0
2018-03-17T00:48:12.408Z,0
2018-03-17T00:48:38.532Z,0
2018-03-17T00:49:04.652Z,0
2018-03-17T00:49:30.761Z,0
2018-03-17T00:49:56.885Z,0
2018-03-17T00:50:22.997Z,0
2018-03-17T00:50:49.117Z,0
2018-03-17T00:51:15.236Z,0
2018-03-17T00:51:41.354Z,0
2018-03-17T00:52:07.457Z,0
2018-03-17T00:52:33.574Z,0
2018-03-17T00:52:59.705Z,0
2018-03-17T00:53:25.828Z,0
2018-03-17T00:53:51.946Z,0
2018-03-17T00:54:18.046Z,0
2018-03-17T00:54:44.157Z,0
2018-03-17T00:55:10.271Z,0
2018-03-17T00:55:36.392Z,0
2018-03-17T00:56:02.508Z,0
2018-03-17T00:56:28.621Z,0
2018-03-17T00:56:54.730Z,0
2018-03-17T00:57:20.852Z,0
2018-03-17T00:57:46.970Z,0
2018-03-17T00:58:13.084Z,0
2018-03-17T00:58:39.204Z,0
2018-03-17T00:59:05.318Z,0
2018-03-17T00:59:31.433Z,0
2018-03-17T00:59:57.558Z,0
2018-03-17T01:00:23.668Z,0
2018-03-17T01:00:49.790Z,0
2018-03-17T01:01:15.907Z,0
2018-03-17T01:01:42.022Z,0
2018-03-17T01:02:08.165Z,0
2018-03-17T01:02:34.344Z,0
2018-03-17T01:03:00.419Z,0
2018-03-17T01:03:26.536Z,0
2018-03-17T01:03:52.660Z,0
2018-03-17T01:04:18.765Z,0
2018-03-17T01:04:44.881Z,0
2018-03-17T01:05:11.001Z,0
2018-03-17T01:05:37.117Z,0
2018-03-17T01:06:03.248Z,0
2018-03-17T01:06:29.367Z,0
2018-03-17T01:06:55.492Z,0
2018-03-17T01:07:21.608Z,0
2018-03-17T01:07:47.720Z,0
2018-03-17T01:08:13.841Z,0
2018-03-17T01:08:39.957Z,0
2018-03-17T01:09:06.093Z,0
2018-03-17T01:09:32.198Z,0
2018-03-17T01:09:58.311Z,0
2018-03-17T01:10:24.432Z,0
2018-03-17T01:10:50.544Z,0
2018-03-17T01:11:16.683Z,0
2018-03-17T01:11:42.800Z,0
2018-03-17T01:12:08.920Z,0
2018-03-17T01:12:35.040Z,0
2018-03-17T01:13:01.163Z,0
2018-03-17T01:13:27.280Z,0
2018-03-17T01:13:53.397Z,0
2018-03-17T01:14:19.511Z,0
2018-03-17T01:14:45.633Z,0
2018-03-17T01:15:11.749Z,0
2018-03-17T01:15:37.862Z,0
2018-03-17T01:16:03.983Z,0
2018-03-17T01:16:30.095Z,0
2018-03-17T01:16:56.215Z,0
2018-03-17T01:17:22.347Z,0
2018-03-17T01:17:48.468Z,0
2018-03-17T01:18:14.585Z,0
2018-03-17T01:18:40.706Z,0
2018-03-17T01:19:06.819Z,0
2018-03-17T01:19:32.954Z,0
2018-03-17T01:19:59.093Z,0
2018-03-17T01:20:25.227Z,0
2018-03-17T01:20:51.351Z,0
2018-03-17T01:21:17.459Z,0
2018-03-17T01:21:43.580Z,0
2018-03-17T01:22:09.682Z,0
2018-03-17T01:22:35.786Z,0
2018-03-17T01:23:01.888Z,0
2018-03-17T01:23:27.992Z,0
2018-03-17T01:23:54.093Z,0
2018-03-17T01:24:20.198Z,0
2018-03-17T01:24:46.304Z,0
2018-03-17T01:25:12.429Z,0
2018-03-17T01:25:38.525Z,0
2018-03-17T01:26:04.626Z,0
2018-03-17T01:26:30.730Z,0
2018-03-17T01:26:56.832Z,0
2018-03-17T01:27:22.953Z,0
2018-03-17T01:27:49.079Z,0
2018-03-17T01:28:15.160Z,0
2018-03-17T01:28:41.268Z,0
2018-03-17T01:29:07.367Z,0
2018-03-17T01:29:33.468Z,0
2018-03-17T01:29:59.573Z,0
2018-03-17T01:30:25.675Z,0
2018-03-17T01:30:51.779Z,0
2018-03-17T01:31:17.880Z,0
2018-03-17T01:31:43.983Z,0
2018-03-17T01:32:10.089Z,0
2018-03-17T01:32:36.208Z,0
2018-03-17T01:33:02.309Z,0
2018-03-17T01:33:28.411Z,0
2018-03-17T01:33:54.514Z,0
2018-03-17T01:34:20.618Z,0
2018-03-17T01:34:46.721Z,0
2018-03-17T01:35:12.824Z,0
2018-03-17T01:35:38.927Z,0
2018-03-17T01:36:05.033Z,0
2018-03-17T01:36:31.151Z,0
2018-03-17T01:36:57.253Z,0
2018-03-17T01:37:23.358Z,0
2018-03-17T01:37:49.464Z,0
2018-03-17T01:38:15.568Z,0
2018-03-17T01:38:41.670Z,0
2018-03-17T01:39:07.774Z,0
2018-03-17T01:39:33.875Z,0
2018-03-17T01:39:59.980Z,0
2018-03-17T01:40:26.099Z,0
2018-03-17T01:40:52.206Z,0
2018-03-17T01:41:18.306Z,0
2018-03-17T01:41:44.430Z,0
2018-03-17T01:42:10.535Z,0
2018-03-17T01:42:36.638Z,0
2018-03-17T01:43:02.745Z,0
2018-03-17T01:43:28.863Z,0
2018-03-17T01:43:54.977Z,0
2018-03-17T01:44:21.084Z,0
2018-03-17T01:44:47.190Z,0
2018-03-17T01:45:13.293Z,0
2018-03-17T01:45:39.399Z,0
2018-03-17T01:46:05.517Z,0
2018-03-17T01:46:31.621Z,0
2018-03-17T01:46:57.727Z,0
2018-03-17T01:47:23.842Z,0
2018-03-17T01:47:49.959Z,0
2018-03-17T01:48:16.077Z,0
2018-03-17T01:48:42.188Z,0
2018-03-17T01:49:08.292Z,0
2018-03-17T01:49:34.393Z,0
2018-03-17T01:50:00.499Z,0
2018-03-17T01:50:26.618Z,0
2018-03-17T01:50:52.747Z,0
2018-03-17T01:51:18.865Z,0
2018-03-17T01:51:44.983Z,0
2018-03-17T01:52:11.099Z,0
2018-03-17T01:52:37.207Z,0
2018-03-17T01:53:03.327Z,0
2018-03-17T01:53:29.433Z,0
2018-03-17T01:53:55.538Z,0
2018-03-17T01:54:21.661Z,0
2018-03-17T01:54:47.775Z,0
2018-03-17T01:55:13.893Z,0
2018-03-17T01:55:40.009Z,0
2018-03-17T01:56:06.126Z,0
2018-03-17T01:56:32.236Z,0
2018-03-17T01:56:58.358Z,0
2018-03-17T01:57:24.471Z,0
2018-03-17T01:57:50.593Z,0
2018-03-17T01:58:16.704Z,0
2018-03-17T01:58:42.840Z,0
2018-03-17T01:59:08.958Z,0
2018-03-17T01:59:35.075Z,0
2018-03-17T02:00:01.190Z,0
2018-03-17T02:00:27.308Z,0
2018-03-17T02:00:53.424Z,0
2018-03-17T02:01:19.536Z,0
2018-03-17T02:01:45.655Z,0
2018-03-17T02:02:11.766Z,0
2018-03-17T02:02:37.889Z,0
2018-03-17T02:03:04.026Z,0
2018-03-17T02:03:30.139Z,0
2018-03-17T02:03:56.264Z,0
2018-03-17T02:04:22.375Z,0
2018-03-17T02:04:48.488Z,0
2018-03-17T02:05:14.611Z,0
2018-03-17T02:05:40.724Z,0
2018-03-17T02:06:06.841Z,0
2018-03-17T02:06:32.958Z,0
2018-03-17T02:06:59.075Z,0
2018-03-17T02:07:25.186Z,0
2018-03-17T02:07:51.306Z,0
2018-03-17T02:08:17.453Z,0
2018-03-17T02:08:43.567Z,0
2018-03-17T02:09:09.680Z,0
2018-03-17T02:09:35.803Z,0
2018-03-17T02:10:01.924Z,0
2018-03-17T02:10:28.059Z,0
2018-03-17T02:10:54.179Z,0
2018-03-17T02:11:20.304Z,0
2018-03-17T02:11:46.415Z,0
2018-03-17T02:12:12.538Z,0
2018-03-17T02:12:38.648Z,0
2018-03-17T02:13:04.767Z,0
2018-03-17T02:13:30.877Z,0
2018-03-17T02:13:56.996Z,0
2018-03-17T02:14:23.110Z,0
2018-03-17T02:14:49.264Z,0
2018-03-17T02:15:15.370Z,0
2018-03-17T02:15:41.488Z,0
2018-03-17T02:16:07.607Z,0
2018-03-17T02:16:33.723Z,0
2018-03-17T02:16:59.835Z,0
2018-03-17T02:17:25.967Z,0
2018-03-17T02:17:52.084Z,0
2018-03-17T02:18:18.197Z,0
2018-03-17T02:18:44.315Z,0
2018-03-17T02:19:10.433Z,0
2018-03-17T02:19:36.563Z,0
2018-03-17T02:20:02.682Z,0
2018-03-17T02:20:28.798Z,0
2018-03-17T02:20:54.917Z,0
2018-03-17T02:21:21.031Z,0
2018-03-17T02:21:47.153Z,0
2018-03-17T02:22:13.320Z,0
2018-03-17T02:22:39.384Z,0
2018-03-17T02:23:05.503Z,0
2018-03-17T02:23:31.616Z,0
2018-03-17T02:23:57.730Z,0
2018-03-17T02:24:23.875Z,0
2018-03-17T02:24:50.019Z,0
2018-03-17T02:25:16.129Z,0
2018-03-17T02:25:42.243Z,0
2018-03-17T02:26:08.365Z,0
2018-03-17T02:26:34.481Z,0
2018-03-17T02:27:00.601Z,0
2018-03-17T02:27:26.732Z,0
2018-03-17T02:27:52.853Z,0
2018-03-17T02:28:18.964Z,0
2018-03-17T02:28:45.083Z,0
2018-03-17T02:29:11.208Z,0
2018-03-17T02:29:37.325Z,0
2018-03-17T02:30:03.466Z,0
2018-03-17T02:30:29.596Z,0
2018-03-17T02:30:55.716Z,0
2018-03-17T02:31:21.828Z,0
2018-03-17T02:31:47.939Z,0
2018-03-17T02:32:14.062Z,0
2018-03-17T02:32:40.185Z,0
2018-03-17T02:33:06.296Z,0
2018-03-17T02:33:32.427Z,0
2018-03-17T02:33:58.532Z,0
2018-03-17T02:34:24.650Z,0
2018-03-17T02:34:50.810Z,0
2018-03-17T02:35:16.926Z,0
2018-03-17T02:35:43.064Z,0
2018-03-17T02:36:09.163Z,0
2018-03-17T02:36:35.289Z,0
2018-03-17T02:37:01.409Z,0
2018-03-17T02:37:27.519Z,0
2018-03-17T02:37:53.633Z,0
2018-03-17T02:38:19.743Z,0
2018-03-17T02:38:45.864Z,0
2018-03-17T02:39:11.977Z,0
2018-03-17T02:39:38.104Z,0
2018-03-17T02:40:04.232Z,0
2018-03-17T02:40:30.350Z,0
2018-03-17T02:40:56.464Z,0
2018-03-17T02:41:22.593Z,0
2018-03-17T02:41:48.708Z,0
2018-03-17T02:42:14.827Z,0
2018-03-17T02:42:40.968Z,0
2018-03-17T02:43:07.082Z,0
2018-03-17T02:43:33.224Z,0
2018-03-17T02:43:59.336Z,0
2018-03-17T02:44:25.491Z,0
2018-03-17T02:44:51.612Z,0
2018-03-17T02:45:17.728Z,0
2018-03-17T02:45:43.856Z,0
2018-03-17T02:46:09.978Z,0
2018-03-17T02:46:36.110Z,0
2018-03-17T02:47:02.277Z,0
2018-03-17T02:47:28.400Z,0
2018-03-17T02:47:54.519Z,0
2018-03-17T02:48:20.648Z,0
2018-03-17T02:48:46.765Z,0
2018-03-17T02:49:12.898Z,0
2018-03-17T02:49:38.997Z,0
2018-03-17T02:50:05.120Z,0
2018-03-17T02:50:31.235Z,0
2018-03-17T02:50:57.345Z,0
2018-03-17T02:51:23.484Z,0
2018-03-17T02:51:49.616Z,0
2018-03-17T02:52:15.736Z,0
2018-03-17T02:52:41.849Z,0
2018-03-17T02:53:07.969Z,0
2018-03-17T02:53:34.084Z,0
2018-03-17T02:54:00.219Z,0
2018-03-17T02:54:26.343Z,0
2018-03-17T02:54:52.457Z,0
2018-03-17T02:55:18.576Z,0
2018-03-17T02:55:44.687Z,0
2018-03-17T02:56:10.801Z,0
2018-03-17T02:56:36.964Z,0
2018-03-17T02:57:03.082Z,0
2018-03-17T02:57:29.203Z,0
2018-03-17T02:57:55.336Z,0
2018-03-17T02:58:21.450Z,0
2018-03-17T02:58:47.570Z,0
2018-03-17T02:59:13.679Z,0
2018-03-17T02:59:39.799Z,0
2018-03-17T03:00:05.929Z,0
2018-03-17T03:00:32.050Z,0
2018-03-17T03:00:58.168Z,0
2018-03-17T03:01:24.302Z,0
2018-03-17T03:01:50.423Z,0
2018-03-17T03:02:16.554Z,0
2018-03-17T03:02:42.644Z,0
2018-03-17T03:03:08.769Z,0
2018-03-17T03:03:34.877Z,0
2018-03-17T03:04:01.018Z,0
2018-03-17T03:04:27.130Z,0
2018-03-17T03:04:53.252Z,0
2018-03-17T03:05:19.364Z,0
2018-03-17T03:05:45.478Z,0
2018-03-17T03:06:11.620Z,0
2018-03-17T03:06:37.730Z,0
2018-03-17T03:07:03.859Z,0
2018-03-17T03:07:29.974Z,0
2018-03-17T03:07:56.135Z,0
2018-03-17T03:08:22.218Z,0
2018-03-17T03:08:48.345Z,0
2018-03-17T03:09:14.461Z,0
2018-03-17T03:09:40.597Z,0
2018-03-17T03:10:06.708Z,0
2018-03-17T03:10:32.833Z,0
2018-03-17T03:10:58.953Z,0
2018-03-17T03:11:25.069Z,0
2018-03-17T03:11:51.186Z,0
2018-03-17T03:12:17.316Z,0
2018-03-17T03:12:43.422Z,0
2018-03-17T03:13:09.536Z,0
2018-03-17T03:13:35.660Z,0
2018-03-17T03:14:01.769Z,0
2018-03-17T03:14:27.888Z,0
2018-03-17T03:14:54.002Z,0
2018-03-17T03:15:20.119Z,0
2018-03-17T03:15:46.239Z,0
2018-03-17T03:16:12.361Z,0
2018-03-17T03:16:38.488Z,0
2018-03-17T03:17:04.636Z,0
2018-03-17T03:17:30.742Z,0
2018-03-17T03:17:56.859Z,0
2018-03-17T03:18:22.976Z,0
2018-03-17T03:18:49.099Z,0
2018-03-17T03:19:15.208Z,0
2018-03-17T03:19:41.351Z,0
2018-03-17T03:20:07.459Z,0
2018-03-17T03:20:33.575Z,0
2018-03-17T03:20:59.697Z,0
2018-03-17T03:21:25.817Z,0
2018-03-17T03:21:51.927Z,0
2018-03-17T03:22:18.062Z,0
2018-03-17T03:22:44.183Z,0
2018-03-17T03:23:10.298Z,0
2018-03-17T03:23:36.420Z,0
2018-03-17T03:24:02.536Z,0
2018-03-17T03:24:28.654Z,0
2018-03-17T03:24:54.774Z,0
2018-03-17T03:25:20.887Z,0
2018-03-17T03:25:47.014Z,0
2018-03-17T03:26:13.127Z,0
2018-03-17T03:26:39.240Z,0
2018-03-17T03:27:05.354Z,0
2018-03-17T03:27:31.464Z,0
2018-03-17T03:27:57.587Z,0
2018-03-17T03:28:23.702Z,0
2018-03-17T03:28:49.814Z,0
2018-03-17T03:29:15.949Z,0
2018-03-17T03:29:42.078Z,0
2018-03-17T03:30:08.231Z,0
2018-03-17T03:30:34.364Z,0
2018-03-17T03:31:00.481Z,0
2018-03-17T03:31:26.598Z,0
2018-03-17T03:31:52.709Z,0
2018-03-17T03:32:18.826Z,0
2018-03-17T03:32:44.959Z,0
2018-03-17T03:33:11.078Z,0
2018-03-17T03:33:37.193Z,0
2018-03-17T03:34:03.309Z,0
2018-03-17T03:34:29.428Z,0
2018-03-17T03:34:55.579Z,0
2018-03-17T03:35:21.700Z,0
2018-03-17T03:35:47.812Z,0
2018-03-17T03:36:13.927Z,0
2018-03-17T03:36:40.048Z,0
2018-03-17T03:37:06.184Z,0
2018-03-17T03:37:32.302Z,0
2018-03-17T03:37:58.421Z,0
2018-03-17T03:38:24.541Z,0
2018-03-17T03:38:50.652Z,0
2018-03-17T03:39:16.764Z,0
2018-03-17T03:39:42.881Z,0
2018-03-17T03:40:08.999Z,0
2018-03-17T03:40:35.156Z,0
2018-03-17T03:41:01.266Z,0
2018-03-17T03:41:27.380Z,0
2018-03-17T03:41:53.506Z,0
2018-03-17T03:42:19.619Z,0
2018-03-17T03:42:45.755Z,0
2018-03-17T03:43:11.873Z,0
2018-03-17T03:43:37.989Z,0
2018-03-17T03:44:04.110Z,0
2018-03-17T03:44:30.224Z,0
2018-03-17T03:44:56.337Z,0
2018-03-17T03:45:22.503Z,0
2018-03-17T03:45:48.615Z,0
2018-03-17T03:46:14.732Z,0
2018-03-17T03:46:40.866Z,0
2018-03-17T03:47:06.985Z,0
2018-03-17T03:47:33.104Z,0
2018-03-17T03:47:59.214Z,0
2018-03-17T03:48:25.329Z,0
2018-03-17T03:48:51.442Z,0
2018-03-17T03:49:17.563Z,0
2018-03-17T03:49:43.675Z,0
2018-03-17T03:50:09.797Z,0
2018-03-17T03:50:35.918Z,0
2018-03-17T03:51:02.054Z,0
2018-03-17T03:51:28.177Z,0
2018-03-17T03:51:54.285Z,0
2018-03-17T03:52:20.430Z,0
2018-03-17T03:52:46.542Z,0
2018-03-17T03:53:12.660Z,0
2018-03-17T03:53:38.772Z,0
2018-03-17T03:54:04.893Z,0
2018-03-17T03:54:31.005Z,0
2018-03-17T03:54:57.126Z,0
2018-03-17T03:55:23.236Z,0
2018-03-17T03:55:49.358Z,0
2018-03-17T03:56:15.470Z,0
2018-03-17T03:56:41.593Z,0
2018-03-17T03:57:07.716Z,0
2018-03-17T03:57:33.825Z,0
2018-03-17T03:57:59.947Z,0
2018-03-17T03:58:26.056Z,0
2018-03-17T03:58:52.175Z,0
2018-03-17T03:59:18.298Z,0
2018-03-17T03:59:44.406Z,0
2018-03-17T04:00:10.523Z,0
2018-03-17T04:00:36.638Z,0
2018-03-17T04:01:02.757Z,0
2018-03-17T04:01:28.870Z,0
2018-03-17T04:01:55.006Z,0
2018-03-17T04:02:21.120Z,0
2018-03-17T04:02:47.237Z,0
2018-03-17T04:03:13.357Z,0
2018-03-17T04:03:39.470Z,0
2018-03-17T04:04:05.590Z,0
2018-03-17T04:04:31.710Z,0
2018-03-17T04:04:57.833Z,0
2018-03-17T04:05:23.949Z,0
2018-03-17T04:05:50.065Z,0
2018-03-17T04:06:16.200Z,0
2018-03-17T04:06:42.316Z,0
2018-03-17T04:07:08.431Z,0
2018-03-17T04:07:34.544Z,0
2018-03-17T04:08:00.667Z,0
2018-03-17T04:08:26.784Z,0
2018-03-17T04:08:52.903Z,0
2018-03-17T04:09:19.014Z,0
2018-03-17T04:09:45.138Z,0
2018-03-17T04:10:11.249Z,0
2018-03-17T04:10:37.368Z,0
2018-03-17T04:11:03.487Z,0
2018-03-17T04:11:29.604Z,0
2018-03-17T04:11:55.713Z,0
2018-03-17T04:12:21.834Z,0
2018-03-17T04:12:47.949Z,0
2018-03-17T04:13:14.060Z,0
2018-03-17T04:13:40.180Z,0
2018-03-17T04:14:06.286Z,0
2018-03-17T04:14:32.401Z,0
2018-03-17T04:14:58.522Z,0
2018-03-17T04:15:24.659Z,0
2018-03-17T04:15:50.782Z,0
2018-03-17T04:16:16.923Z,0
2018-03-17T04:16:43.034Z,0
2018-03-17T04:17:09.148Z,0
2018-03-17T04:17:35.269Z,0
2018-03-17T04:18:01.409Z,0
2018-03-17T04:18:27.522Z,0
2018-03-17T04:18:53.642Z,0
2018-03-17T04:19:19.756Z,0
2018-03-17T04:19:45.871Z,0
2018-03-17T04:20:11.991Z,0
2018-03-17T04:20:38.105Z,0
2018-03-17T04:21:04.222Z,0
2018-03-17T04:21:30.339Z,0
2018-03-17T04:21:56.456Z,0
2018-03-17T04:22:22.577Z,0
2018-03-17T04:22:48.685Z,0
2018-03-17T04:23:14.799Z,0
2018-03-17T04:23:40.920Z,0
2018-03-17T04:24:07.041Z,0
2018-03-17T04:24:33.151Z,0
2018-03-17T04:24:59.268Z,0
2018-03-17T04:25:25.381Z,0
2018-03-17T04:25:51.495Z,0
2018-03-17T04:26:17.678Z,0
2018-03-17T04:26:43.788Z,0
2018-03-17T04:27:09.911Z,0
2018-03-17T04:27:36.030Z,0
2018-03-17T04:28:02.145Z,0
2018-03-17T04:28:28.263Z,0
2018-03-17T04:28:54.401Z,0
2018-03-17T04:29:20.517Z,0
2018-03-17T04:29:46.651Z,0
2018-03-17T04:30:12.793Z,0
2018-03-17T04:30:38.904Z,0
2018-03-17T04:31:05.024Z,0
2018-03-17T04:31:31.143Z,0
2018-03-17T04:31:57.260Z,0
2018-03-17T04:32:23.376Z,0
2018-03-17T04:32:49.496Z,0
2018-03-17T04:33:15.612Z,0
2018-03-17T04:33:41.729Z,0
2018-03-17T04:34:07.878Z,0
2018-03-17T04:34:33.991Z,0
2018-03-17T04:35:00.117Z,0
2018-03-17T04:35:26.232Z,0
2018-03-17T04:35:52.349Z,0
2018-03-17T04:36:18.488Z,0
2018-03-17T04:36:44.604Z,0
2018-03-17T04:37:10.722Z,0
2018-03-17T04:37:36.855Z,0
2018-03-17T04:38:02.972Z,0
2018-03-17T04:38:29.101Z,0
2018-03-17T04:38:55.262Z,0
2018-03-17T04:39:21.381Z,0
2018-03-17T04:39:47.495Z,0
2018-03-17T04:40:13.615Z,0
2018-03-17T04:40:39.739Z,0
2018-03-17T04:41:05.847Z,0
2018-03-17T04:41:31.966Z,0
2018-03-17T04:41:58.086Z,0
2018-03-17T04:42:24.205Z,0
2018-03-17T04:42:50.320Z,0
2018-03-17T04:43:16.438Z,0
2018-03-17T04:43:42.548Z,0
2018-03-17T04:44:08.668Z,0
2018-03-17T04:44:34.787Z,0
2018-03-17T04:45:00.908Z,0
2018-03-17T04:45:27.025Z,0
2018-03-17T04:45:53.134Z,0
2018-03-17T04:46:19.256Z,0
2018-03-17T04:46:45.374Z,0
2018-03-17T04:47:11.490Z,0
2018-03-17T04:47:37.607Z,0
2018-03-17T04:48:03.726Z,0
2018-03-17T04:48:29.846Z,0
2018-03-17T04:48:55.957Z,0
2018-03-17T04:49:22.079Z,0
2018-03-17T04:49:48.189Z,0
2018-03-17T04:50:14.304Z,0
2018-03-17T04:50:40.427Z,0
2018-03-17T04:51:06.543Z,0
2018-03-17T04:51:32.660Z,0
2018-03-17T04:51:58.776Z,0
2018-03-17T04:52:24.890Z,0
2018-03-17T04:52:51.008Z,0
2018-03-17T04:53:17.148Z,0
2018-03-17T04:53:43.264Z,0
2018-03-17T04:54:09.387Z,0
2018-03-17T04:54:35.502Z,0
2018-03-17T04:55:01.612Z,0
2018-03-17T04:55:27.730Z,0
2018-03-17T04:55:53.849Z,0
2018-03-17T04:56:19.965Z,0
2018-03-17T04:56:46.102Z,0
2018-03-17T04:57:12.223Z,0
2018-03-17T04:57:38.338Z,0
2018-03-17T04:58:04.452Z,0
2018-03-17T04:58:30.565Z,0
2018-03-17T04:58:56.677Z,0
2018-03-17T04:59:22.798Z,0
2018-03-17T04:59:48.907Z,0
2018-03-17T05:00:15.021Z,0
2018-03-17T05:00:41.147Z,0
2018-03-17T05:01:07.270Z,0
2018-03-17T05:01:33.387Z,0
2018-03-17T05:01:59.498Z,0
2018-03-17T05:02:25.634Z,0
2018-03-17T05:02:51.749Z,0
2018-03-17T05:03:17.876Z,0
2018-03-17T05:03:43.989Z,0
2018-03-17T05:04:10.100Z,0
2018-03-17T05:04:36.220Z,0
2018-03-17T05:05:02.355Z,0
2018-03-17T05:05:28.479Z,0
2018-03-17T05:05:54.597Z,0
2018-03-17T05:06:20.708Z,0
2018-03-17T05:06:46.823Z,0
2018-03-17T05:07:12.945Z,0
2018-03-17T05:07:39.062Z,0
2018-03-17T05:08:05.174Z,0
2018-03-17T05:08:31.294Z,0
2018-03-17T05:08:57.408Z,0
2018-03-17T05:09:23.552Z,0
2018-03-17T05:09:49.671Z,0
2018-03-17T05:10:15.782Z,0
2018-03-17T05:10:41.898Z,0
2018-03-17T05:11:08.037Z,0
2018-03-17T05:11:34.151Z,0
2018-03-17T05:12:00.268Z,0
2018-03-17T05:12:26.409Z,0
2018-03-17T05:12:52.549Z,0
2018-03-17T05:13:18.668Z,0
2018-03-17T05:13:44.786Z,0
2018-03-17T05:14:10.895Z,0
2018-03-17T05:14:37.018Z,0
2018-03-17T05:15:03.147Z,0
2018-03-17T05:15:29.267Z,0
2018-03-17T05:15:55.382Z,0
2018-03-17T05:16:21.519Z,0
2018-03-17T05:16:47.636Z,0
2018-03-17T05:17:13.755Z,0
2018-03-17T05:17:39.865Z,0
2018-03-17T05:18:05.980Z,0
2018-03-17T05:18:32.104Z,0
2018-03-17T05:18:58.220Z,0
2018-03-17T05:19:24.331Z,0
2018-03-17T05:19:50.465Z,0
2018-03-17T05:20:16.584Z,0
2018-03-17T05:20:42.711Z,0
2018-03-17T05:21:08.822Z,0
2018-03-17T05:21:34.944Z,0
2018-03-17T05:22:01.057Z,0
2018-03-17T05:22:27.177Z,0
2018-03-17T05:22:53.288Z,0
2018-03-17T05:23:19.401Z,0
2018-03-17T05:23:45.520Z,0
2018-03-17T05:24:11.635Z,0
2018-03-17T05:24:37.754Z,0
2018-03-17T05:25:03.874Z,0
2018-03-17T05:25:29.996Z,0
2018-03-17T05:25:56.104Z,0
2018-03-17T05:26:22.227Z,0
2018-03-17T05:26:48.373Z,0
2018-03-17T05:27:14.488Z,0
2018-03-17T05:27:40.603Z,0
2018-03-17T05:28:06.722Z,0
2018-03-17T05:28:32.856Z,0
2018-03-17T05:28:58.947Z,0
2018-03-17T05:29:25.065Z,0
2018-03-17T05:29:51.181Z,0
2018-03-17T05:30:17.299Z,0
2018-03-17T05:30:43.414Z,0
2018-03-17T05:31:09.527Z,0
2018-03-17T05:31:35.648Z,0
2018-03-17T05:32:01.764Z,0
2018-03-17T05:32:27.874Z,0
2018-03-17T05:32:53.990Z,0
2018-03-17T05:33:20.110Z,0
2018-03-17T05:33:46.229Z,0
2018-03-17T05:34:12.343Z,0
2018-03-17T05:34:38.466Z,0
2018-03-17T05:35:04.577Z,0
2018-03-17T05:35:30.723Z,0
2018-03-17T05:35:56.830Z,0
2018-03-17T05:36:22.942Z,0
2018-03-17T05:36:49.061Z,0
2018-03-17T05:37:15.181Z,0
2018-03-17T05:37:41.296Z,0
2018-03-17T05:38:07.418Z,0
2018-03-17T05:38:33.529Z,0
2018-03-17T05:38:59.653Z,0
2018-03-17T05:39:25.764Z,0
2018-03-17T05:39:51.878Z,5
2018-03-17T05:40:18.025Z,0
2018-03-17T05:40:44.143Z,0
2018-03-17T05:41:10.252Z,5
2018-03-17T05:41:36.373Z,5
2018-03-17T05:42:02.488Z,5
2018-03-17T05:42:28.602Z,5
2018-03-17T05:42:54.742Z,5
2018-03-17T05:43:20.917Z,5
2018-03-17T05:43:46.975Z,5
2018-03-17T05:44:13.086Z,5
2018-03-17T05:44:39.206Z,5
2018-03-17T05:45:05.325Z,5
2018-03-17T05:45:31.446Z,5
2018-03-17T05:45:57.553Z,5
2018-03-17T05:46:23.675Z,5
2018-03-17T05:46:49.797Z,5
2018-03-17T05:47:15.906Z,5
2018-03-17T05:47:42.027Z,10
2018-03-17T05:48:08.140Z,10
2018-03-17T05:48:34.254Z,10
2018-03-17T05:49:00.370Z,10
2018-03-17T05:49:26.485Z,10
2018-03-17T05:49:52.604Z,10
2018-03-17T05:50:18.723Z,10
2018-03-17T05:50:44.833Z,10
2018-03-17T05:51:10.958Z,10
2018-03-17T05:51:37.072Z,10
2018-03-17T05:52:03.191Z,10
2018-03-17T05:52:29.307Z,10
2018-03-17T05:52:55.421Z,10
2018-03-17T05:53:21.537Z,5
2018-03-17T05:53:47.651Z,10
2018-03-17T05:54:13.765Z,10
2018-03-17T05:54:39.884Z,10
2018-03-17T05:55:06.001Z,10
2018-03-17T05:55:32.118Z,15
2018-03-17T05:55:58.239Z,15
2018-03-17T05:56:24.355Z,15
2018-03-17T05:56:50.468Z,15
2018-03-17T05:57:16.585Z,15
2018-03-17T05:57:42.694Z,15
2018-03-17T05:58:08.808Z,15
2018-03-17T05:58:34.984Z,20
2018-03-17T05:59:01.066Z,20
2018-03-17T05:59:27.184Z,20
2018-03-17T05:59:53.321Z,20
2018-03-17T06:00:19.440Z,20
2018-03-17T06:00:45.573Z,20
2018-03-17T06:01:11.688Z,25
2018-03-17T06:01:37.811Z,25
2018-03-17T06:02:03.924Z,25
2018-03-17T06:02:30.036Z,20
2018-03-17T06:02:56.155Z,25
2018-03-17T06:03:22.268Z,25
2018-03-17T06:03:48.387Z,25
2018-03-17T06:04:14.506Z,25
2018-03-17T06:04:40.643Z,25
2018-03-17T06:05:06.757Z,25
2018-03-17T06:05:32.875Z,25
2018-03-17T06:05:58.989Z,25
2018-03-17T06:06:25.103Z,25
2018-03-17T06:06:51.218Z,25
2018-03-17T06:07:17.340Z,30
2018-03-17T06:07:43.454Z,30
2018-03-17T06:08:09.575Z,30
2018-03-17T06:08:35.685Z,30
2018-03-17T06:09:01.807Z,30
2018-03-17T06:09:27.926Z,30
2018-03-17T06:09:54.043Z,30
2018-03-17T06:10:20.160Z,30
2018-03-17T06:10:46.271Z,25
2018-03-17T06:11:12.391Z,25
2018-03-17T06:11:38.499Z,30
2018-03-17T06:12:04.664Z,25
2018-03-17T06:12:30.796Z,25
2018-03-17T06:12:56.938Z,25
2018-03-17T06:13:23.058Z,30
2018-03-17T06:13:49.165Z,25
2018-03-17T06:14:15.280Z,30
2018-03-17T06:14:41.401Z,30
2018-03-17T06:15:07.514Z,30
2018-03-17T06:15:33.636Z,30
2018-03-17T06:15:59.759Z,25
2018-03-17T06:16:25.872Z,30
2018-03-17T06:16:52.003Z,30
2018-03-17T06:17:18.112Z,30
2018-03-17T06:17:44.233Z,35
2018-03-17T06:18:10.343Z,35
2018-03-17T06:18:36.461Z,35
2018-03-17T06:19:02.575Z,35
2018-03-17T06:19:28.695Z,35
2018-03-17T06:19:54.815Z,35
2018-03-17T06:20:20.923Z,40
2018-03-17T06:20:47.037Z,35
2018-03-17T06:21:13.156Z,35
2018-03-17T06:21:39.295Z,45
2018-03-17T06:22:05.416Z,40
2018-03-17T06:22:31.528Z,40
2018-03-17T06:22:57.651Z,35
2018-03-17T06:23:23.810Z,40
2018-03-17T06:23:49.928Z,45
2018-03-17T06:24:16.044Z,45
2018-03-17T06:24:42.163Z,50
2018-03-17T06:25:08.322Z,50